sensor_id;sensor_type;location;lat;lon;timestamp;P1;durP1;ratioP1;P2;durP2;ratioP2
38379;SDS011;38377;47.418;18.882;2023-07-31T00:00:14;6.90;;;6.20;;
38379;SDS011;38377;47.418;18.882;2023-07-31T00:02:41;6.65;;;6.07;;
38379;SDS011;38377;47.418;18.882;2023-07-31T00:05:07;7.30;;;6.60;;
38379;SDS011;38377;47.418;18.882;2023-07-31T00:07:33;6.95;;;6.35;;
38379;SDS011;38377;47.418;18.882;2023-07-31T00:09:59;9.65;;;8.30;;
38379;SDS011;38377;47.418;18.882;2023-07-31T00:12:27;10.43;;;9.52;;
38379;SDS011;38377;47.418;18.882;2023-07-31T00:14:53;9.35;;;8.55;;
38379;SDS011;38377;47.418;18.882;2023-07-31T00:17:18;9.70;;;8.07;;
38379;SDS011;38377;47.418;18.882;2023-07-31T00:19:44;7.15;;;6.45;;
38379;SDS011;38377;47.418;18.882;2023-07-31T00:22:11;7.65;;;6.50;;
38379;SDS011;38377;47.418;18.882;2023-07-31T00:24:37;7.05;;;6.35;;
38379;SDS011;38377;47.418;18.882;2023-07-31T00:27:03;8.48;;;7.20;;
38379;SDS011;38377;47.418;18.882;2023-07-31T00:29:29;8.20;;;7.25;;
38379;SDS011;38377;47.418;18.882;2023-07-31T00:31:55;9.15;;;6.85;;
38379;SDS011;38377;47.418;18.882;2023-07-31T00:34:21;8.20;;;7.30;;
38379;SDS011;38377;47.418;18.882;2023-07-31T00:36:47;7.95;;;7.15;;
38379;SDS011;38377;47.418;18.882;2023-07-31T00:39:12;8.18;;;7.38;;
38379;SDS011;38377;47.418;18.882;2023-07-31T00:41:38;8.45;;;7.60;;
38379;SDS011;38377;47.418;18.882;2023-07-31T00:44:04;8.98;;;7.78;;
38379;SDS011;38377;47.418;18.882;2023-07-31T00:46:30;8.07;;;7.35;;
38379;SDS011;38377;47.418;18.882;2023-07-31T00:48:56;8.85;;;8.05;;
38379;SDS011;38377;47.418;18.882;2023-07-31T00:51:22;8.50;;;7.70;;
38379;SDS011;38377;47.418;18.882;2023-07-31T00:53:47;9.60;;;8.70;;
38379;SDS011;38377;47.418;18.882;2023-07-31T00:56:13;9.23;;;8.43;;
38379;SDS011;38377;47.418;18.882;2023-07-31T00:58:39;8.90;;;8.00;;
38379;SDS011;38377;47.418;18.882;2023-07-31T01:01:05;8.88;;;7.97;;
38379;SDS011;38377;47.418;18.882;2023-07-31T01:03:31;8.77;;;7.93;;
38379;SDS011;38377;47.418;18.882;2023-07-31T01:09:52;8.23;;;7.53;;
38379;SDS011;38377;47.418;18.882;2023-07-31T01:12:07;8.60;;;7.80;;
38379;SDS011;38377;47.418;18.882;2023-07-31T01:14:32;10.05;;;7.80;;
38379;SDS011;38377;47.418;18.882;2023-07-31T01:16:57;8.43;;;7.60;;
38379;SDS011;38377;47.418;18.882;2023-07-31T01:19:24;7.78;;;7.07;;
38379;SDS011;38377;47.418;18.882;2023-07-31T01:27:34;6.20;;;5.60;;
38379;SDS011;38377;47.418;18.882;2023-07-31T01:30:05;6.10;;;5.07;;
38379;SDS011;38377;47.418;18.882;2023-07-31T01:32:39;4.90;;;4.40;;
38379;SDS011;38377;47.418;18.882;2023-07-31T01:35:07;4.35;;;3.95;;
38379;SDS011;38377;47.418;18.882;2023-07-31T01:37:33;4.15;;;3.85;;
38379;SDS011;38377;47.418;18.882;2023-07-31T01:39:59;4.53;;;4.10;;
38379;SDS011;38377;47.418;18.882;2023-07-31T01:42:25;5.47;;;3.95;;
38379;SDS011;38377;47.418;18.882;2023-07-31T01:44:50;3.97;;;3.67;;
38379;SDS011;38377;47.418;18.882;2023-07-31T01:47:16;4.78;;;3.47;;
38379;SDS011;38377;47.418;18.882;2023-07-31T01:49:41;4.40;;;3.53;;
38379;SDS011;38377;47.418;18.882;2023-07-31T01:52:07;4.20;;;3.80;;
38379;SDS011;38377;47.418;18.882;2023-07-31T01:54:33;4.40;;;4.00;;
38379;SDS011;38377;47.418;18.882;2023-07-31T01:56:59;3.70;;;3.28;;
38379;SDS011;38377;47.418;18.882;2023-07-31T01:59:24;4.00;;;3.60;;
38379;SDS011;38377;47.418;18.882;2023-07-31T02:01:50;3.95;;;3.60;;
38379;SDS011;38377;47.418;18.882;2023-07-31T02:04:16;4.78;;;4.22;;
38379;SDS011;38377;47.418;18.882;2023-07-31T02:06:41;5.82;;;3.95;;
38379;SDS011;38377;47.418;18.882;2023-07-31T02:09:08;4.45;;;4.05;;
38379;SDS011;38377;47.418;18.882;2023-07-31T02:11:34;4.57;;;3.97;;
38379;SDS011;38377;47.418;18.882;2023-07-31T02:13:59;7.35;;;4.18;;
38379;SDS011;38377;47.418;18.882;2023-07-31T02:16:25;5.25;;;4.15;;
38379;SDS011;38377;47.418;18.882;2023-07-31T02:18:50;4.35;;;3.95;;
38379;SDS011;38377;47.418;18.882;2023-07-31T02:21:16;4.68;;;4.28;;
38379;SDS011;38377;47.418;18.882;2023-07-31T02:23:42;5.25;;;4.75;;
38379;SDS011;38377;47.418;18.882;2023-07-31T02:26:07;5.20;;;4.70;;
38379;SDS011;38377;47.418;18.882;2023-07-31T02:28:33;5.80;;;5.30;;
38379;SDS011;38377;47.418;18.882;2023-07-31T02:30:59;5.70;;;5.10;;
38379;SDS011;38377;47.418;18.882;2023-07-31T02:33:24;4.78;;;4.28;;
38379;SDS011;38377;47.418;18.882;2023-07-31T02:35:50;5.57;;;5.07;;
38379;SDS011;38377;47.418;18.882;2023-07-31T02:38:16;5.18;;;4.60;;
38379;SDS011;38377;47.418;18.882;2023-07-31T02:40:41;5.32;;;4.82;;
38379;SDS011;38377;47.418;18.882;2023-07-31T02:43:07;5.30;;;4.80;;
38379;SDS011;38377;47.418;18.882;2023-07-31T02:45:33;5.35;;;4.40;;
38379;SDS011;38377;47.418;18.882;2023-07-31T02:47:59;5.65;;;4.70;;
38379;SDS011;38377;47.418;18.882;2023-07-31T02:50:25;5.05;;;4.40;;
38379;SDS011;38377;47.418;18.882;2023-07-31T02:52:52;5.70;;;4.88;;
38379;SDS011;38377;47.418;18.882;2023-07-31T02:55:18;5.05;;;4.35;;
38379;SDS011;38377;47.418;18.882;2023-07-31T02:57:43;5.28;;;4.45;;
38379;SDS011;38377;47.418;18.882;2023-07-31T03:00:09;8.55;;;5.00;;
38379;SDS011;38377;47.418;18.882;2023-07-31T03:02:35;8.90;;;4.50;;
38379;SDS011;38377;47.418;18.882;2023-07-31T03:05:01;4.93;;;4.20;;
38379;SDS011;38377;47.418;18.882;2023-07-31T03:07:26;5.53;;;4.03;;
38379;SDS011;38377;47.418;18.882;2023-07-31T03:09:53;4.47;;;4.07;;
38379;SDS011;38377;47.418;18.882;2023-07-31T03:12:19;5.43;;;4.47;;
38379;SDS011;38377;47.418;18.882;2023-07-31T03:14:44;5.00;;;4.50;;
38379;SDS011;38377;47.418;18.882;2023-07-31T03:17:10;4.80;;;4.07;;
38379;SDS011;38377;47.418;18.882;2023-07-31T03:19:36;5.20;;;4.22;;
38379;SDS011;38377;47.418;18.882;2023-07-31T03:22:02;5.35;;;4.10;;
38379;SDS011;38377;47.418;18.882;2023-07-31T03:24:28;4.90;;;3.80;;
38379;SDS011;38377;47.418;18.882;2023-07-31T03:26:54;4.22;;;3.28;;
38379;SDS011;38377;47.418;18.882;2023-07-31T03:29:20;4.32;;;3.50;;
38379;SDS011;38377;47.418;18.882;2023-07-31T03:31:45;4.35;;;3.13;;
38379;SDS011;38377;47.418;18.882;2023-07-31T03:34:11;4.10;;;2.78;;
38379;SDS011;38377;47.418;18.882;2023-07-31T03:36:37;3.88;;;2.75;;
38379;SDS011;38377;47.418;18.882;2023-07-31T03:39:02;3.67;;;2.72;;
38379;SDS011;38377;47.418;18.882;2023-07-31T03:41:28;3.38;;;2.88;;
38379;SDS011;38377;47.418;18.882;2023-07-31T03:43:54;3.80;;;3.15;;
38379;SDS011;38377;47.418;18.882;2023-07-31T03:46:23;3.75;;;2.85;;
38379;SDS011;38377;47.418;18.882;2023-07-31T03:48:49;4.00;;;2.92;;
38379;SDS011;38377;47.418;18.882;2023-07-31T03:51:15;3.00;;;2.80;;
38379;SDS011;38377;47.418;18.882;2023-07-31T03:53:42;3.42;;;3.00;;
38379;SDS011;38377;47.418;18.882;2023-07-31T03:56:08;4.10;;;3.25;;
38379;SDS011;38377;47.418;18.882;2023-07-31T03:58:34;4.30;;;3.13;;
38379;SDS011;38377;47.418;18.882;2023-07-31T04:01:01;3.40;;;3.10;;
38379;SDS011;38377;47.418;18.882;2023-07-31T04:03:26;4.00;;;3.28;;
38379;SDS011;38377;47.418;18.882;2023-07-31T04:05:53;3.22;;;2.63;;
38379;SDS011;38377;47.418;18.882;2023-07-31T04:08:21;3.42;;;3.10;;
38379;SDS011;38377;47.418;18.882;2023-07-31T04:10:47;4.28;;;3.00;;
38379;SDS011;38377;47.418;18.882;2023-07-31T04:13:13;3.72;;;3.05;;
38379;SDS011;38377;47.418;18.882;2023-07-31T04:15:38;3.58;;;2.95;;
38379;SDS011;38377;47.418;18.882;2023-07-31T04:18:04;4.47;;;3.10;;
38379;SDS011;38377;47.418;18.882;2023-07-31T04:20:30;3.70;;;2.75;;
38379;SDS011;38377;47.418;18.882;2023-07-31T04:22:56;3.25;;;2.85;;
38379;SDS011;38377;47.418;18.882;2023-07-31T04:25:21;3.38;;;3.05;;
38379;SDS011;38377;47.418;18.882;2023-07-31T04:27:47;3.17;;;2.92;;
38379;SDS011;38377;47.418;18.882;2023-07-31T04:30:13;3.58;;;3.05;;
38379;SDS011;38377;47.418;18.882;2023-07-31T04:32:39;4.00;;;3.00;;
38379;SDS011;38377;47.418;18.882;2023-07-31T04:35:05;2.88;;;2.58;;
38379;SDS011;38377;47.418;18.882;2023-07-31T04:37:30;2.70;;;2.50;;
38379;SDS011;38377;47.418;18.882;2023-07-31T04:39:56;3.85;;;2.30;;
38379;SDS011;38377;47.418;18.882;2023-07-31T04:42:22;2.40;;;2.05;;
38379;SDS011;38377;47.418;18.882;2023-07-31T04:44:48;3.40;;;2.35;;
38379;SDS011;38377;47.418;18.882;2023-07-31T04:47:14;2.58;;;2.10;;
38379;SDS011;38377;47.418;18.882;2023-07-31T04:49:39;2.33;;;2.13;;
38379;SDS011;38377;47.418;18.882;2023-07-31T04:52:05;4.03;;;2.30;;
38379;SDS011;38377;47.418;18.882;2023-07-31T04:54:31;2.88;;;1.90;;
38379;SDS011;38377;47.418;18.882;2023-07-31T04:56:56;2.55;;;1.83;;
38379;SDS011;38377;47.418;18.882;2023-07-31T04:59:22;2.78;;;2.05;;
38379;SDS011;38377;47.418;18.882;2023-07-31T05:01:48;2.33;;;1.73;;
38379;SDS011;38377;47.418;18.882;2023-07-31T05:04:14;4.95;;;2.00;;
38379;SDS011;38377;47.418;18.882;2023-07-31T05:06:40;2.15;;;1.77;;
38379;SDS011;38377;47.418;18.882;2023-07-31T05:09:06;2.85;;;1.77;;
38379;SDS011;38377;47.418;18.882;2023-07-31T05:11:32;2.05;;;1.70;;
38379;SDS011;38377;47.418;18.882;2023-07-31T05:13:57;3.75;;;2.53;;
38379;SDS011;38377;47.418;18.882;2023-07-31T05:16:23;3.50;;;1.83;;
38379;SDS011;38377;47.418;18.882;2023-07-31T05:18:49;2.03;;;1.65;;
38379;SDS011;38377;47.418;18.882;2023-07-31T05:21:14;3.50;;;1.90;;
38379;SDS011;38377;47.418;18.882;2023-07-31T05:23:40;2.33;;;1.75;;
38379;SDS011;38377;47.418;18.882;2023-07-31T05:26:06;2.10;;;1.80;;
38379;SDS011;38377;47.418;18.882;2023-07-31T05:28:34;3.33;;;1.95;;
38379;SDS011;38377;47.418;18.882;2023-07-31T05:31:00;3.47;;;1.98;;
38379;SDS011;38377;47.418;18.882;2023-07-31T05:33:27;2.00;;;1.70;;
38379;SDS011;38377;47.418;18.882;2023-07-31T05:35:52;4.03;;;1.90;;
38379;SDS011;38377;47.418;18.882;2023-07-31T05:38:18;2.10;;;1.80;;
38379;SDS011;38377;47.418;18.882;2023-07-31T05:40:44;3.08;;;1.83;;
38379;SDS011;38377;47.418;18.882;2023-07-31T05:43:10;3.05;;;1.90;;
38379;SDS011;38377;47.418;18.882;2023-07-31T05:45:35;3.45;;;1.95;;
38379;SDS011;38377;47.418;18.882;2023-07-31T05:48:02;3.33;;;1.98;;
38379;SDS011;38377;47.418;18.882;2023-07-31T05:50:28;2.28;;;1.50;;
38379;SDS011;38377;47.418;18.882;2023-07-31T05:52:53;3.63;;;2.17;;
38379;SDS011;38377;47.418;18.882;2023-07-31T05:55:19;2.95;;;1.80;;
38379;SDS011;38377;47.418;18.882;2023-07-31T05:57:45;4.13;;;1.67;;
38379;SDS011;38377;47.418;18.882;2023-07-31T06:00:12;3.13;;;1.60;;
38379;SDS011;38377;47.418;18.882;2023-07-31T06:02:38;3.03;;;1.58;;
38379;SDS011;38377;47.418;18.882;2023-07-31T06:05:04;3.35;;;1.77;;
38379;SDS011;38377;47.418;18.882;2023-07-31T06:07:33;5.15;;;2.10;;
38379;SDS011;38377;47.418;18.882;2023-07-31T06:10:02;4.60;;;1.85;;
38379;SDS011;38377;47.418;18.882;2023-07-31T06:12:29;3.35;;;1.63;;
38379;SDS011;38377;47.418;18.882;2023-07-31T06:14:56;4.22;;;2.00;;
38379;SDS011;38377;47.418;18.882;2023-07-31T06:17:22;2.17;;;1.50;;
38379;SDS011;38377;47.418;18.882;2023-07-31T06:19:47;3.00;;;1.58;;
38379;SDS011;38377;47.418;18.882;2023-07-31T06:22:14;2.95;;;1.80;;
38379;SDS011;38377;47.418;18.882;2023-07-31T06:24:40;4.63;;;1.77;;
38379;SDS011;38377;47.418;18.882;2023-07-31T06:27:05;3.83;;;1.92;;
38379;SDS011;38377;47.418;18.882;2023-07-31T06:29:32;5.60;;;1.85;;
38379;SDS011;38377;47.418;18.882;2023-07-31T06:31:58;4.57;;;1.80;;
38379;SDS011;38377;47.418;18.882;2023-07-31T06:34:24;3.42;;;1.95;;
38379;SDS011;38377;47.418;18.882;2023-07-31T06:36:51;3.22;;;1.70;;
38379;SDS011;38377;47.418;18.882;2023-07-31T06:39:22;2.90;;;2.15;;
38379;SDS011;38377;47.418;18.882;2023-07-31T06:41:48;5.70;;;1.98;;
38379;SDS011;38377;47.418;18.882;2023-07-31T06:44:14;3.05;;;2.65;;
38379;SDS011;38377;47.418;18.882;2023-07-31T06:46:40;3.05;;;2.20;;
38379;SDS011;38377;47.418;18.882;2023-07-31T06:49:05;2.35;;;1.73;;
38379;SDS011;38377;47.418;18.882;2023-07-31T06:51:31;3.08;;;1.73;;
38379;SDS011;38377;47.418;18.882;2023-07-31T06:53:57;2.20;;;1.80;;
38379;SDS011;38377;47.418;18.882;2023-07-31T06:56:23;2.75;;;1.88;;
38379;SDS011;38377;47.418;18.882;2023-07-31T06:58:49;2.95;;;1.80;;
38379;SDS011;38377;47.418;18.882;2023-07-31T07:01:14;2.65;;;1.80;;
38379;SDS011;38377;47.418;18.882;2023-07-31T07:03:40;2.58;;;1.50;;
38379;SDS011;38377;47.418;18.882;2023-07-31T07:06:06;2.25;;;1.70;;
38379;SDS011;38377;47.418;18.882;2023-07-31T07:08:32;3.13;;;1.67;;
38379;SDS011;38377;47.418;18.882;2023-07-31T07:10:57;2.63;;;1.77;;
38379;SDS011;38377;47.418;18.882;2023-07-31T07:13:23;1.88;;;1.40;;
38379;SDS011;38377;47.418;18.882;2023-07-31T07:15:49;2.35;;;1.73;;
38379;SDS011;38377;47.418;18.882;2023-07-31T07:18:15;5.45;;;3.10;;
38379;SDS011;38377;47.418;18.882;2023-07-31T07:20:49;3.95;;;2.13;;
38379;SDS011;38377;47.418;18.882;2023-07-31T07:23:15;2.85;;;1.95;;
38379;SDS011;38377;47.418;18.882;2023-07-31T07:25:42;2.58;;;1.60;;
38379;SDS011;38377;47.418;18.882;2023-07-31T07:28:08;2.92;;;1.63;;
38379;SDS011;38377;47.418;18.882;2023-07-31T07:30:34;2.25;;;1.60;;
38379;SDS011;38377;47.418;18.882;2023-07-31T07:33:00;2.53;;;1.58;;
38379;SDS011;38377;47.418;18.882;2023-07-31T07:35:25;3.13;;;1.83;;
38379;SDS011;38377;47.418;18.882;2023-07-31T07:37:51;3.45;;;1.45;;
38379;SDS011;38377;47.418;18.882;2023-07-31T07:40:17;2.85;;;1.73;;
38379;SDS011;38377;47.418;18.882;2023-07-31T07:42:42;2.92;;;1.83;;
38379;SDS011;38377;47.418;18.882;2023-07-31T07:45:08;2.75;;;1.70;;
38379;SDS011;38377;47.418;18.882;2023-07-31T07:47:34;3.35;;;1.73;;
38379;SDS011;38377;47.418;18.882;2023-07-31T07:50:00;4.93;;;2.40;;
38379;SDS011;38377;47.418;18.882;2023-07-31T07:52:26;3.47;;;2.17;;
38379;SDS011;38377;47.418;18.882;2023-07-31T07:54:51;2.13;;;1.48;;
38379;SDS011;38377;47.418;18.882;2023-07-31T07:57:17;3.08;;;1.83;;
38379;SDS011;38377;47.418;18.882;2023-07-31T07:59:43;2.17;;;1.60;;
38379;SDS011;38377;47.418;18.882;2023-07-31T08:02:09;3.25;;;1.65;;
38379;SDS011;38377;47.418;18.882;2023-07-31T08:04:34;2.17;;;1.42;;
38379;SDS011;38377;47.418;18.882;2023-07-31T08:07:00;2.70;;;1.70;;
38379;SDS011;38377;47.418;18.882;2023-07-31T08:09:26;6.43;;;1.92;;
38379;SDS011;38377;47.418;18.882;2023-07-31T08:11:51;2.20;;;1.58;;
38379;SDS011;38377;47.418;18.882;2023-07-31T08:14:17;4.80;;;1.98;;
38379;SDS011;38377;47.418;18.882;2023-07-31T08:16:42;4.15;;;1.60;;
38379;SDS011;38377;47.418;18.882;2023-07-31T08:19:09;2.70;;;1.98;;
38379;SDS011;38377;47.418;18.882;2023-07-31T08:21:34;4.80;;;1.85;;
38379;SDS011;38377;47.418;18.882;2023-07-31T08:24:00;9.50;;;1.85;;
38379;SDS011;38377;47.418;18.882;2023-07-31T08:26:25;3.05;;;1.42;;
38379;SDS011;38377;47.418;18.882;2023-07-31T08:28:51;2.92;;;1.70;;
38379;SDS011;38377;47.418;18.882;2023-07-31T08:31:17;2.88;;;1.80;;
38379;SDS011;38377;47.418;18.882;2023-07-31T08:33:44;6.30;;;2.08;;
38379;SDS011;38377;47.418;18.882;2023-07-31T08:36:09;2.80;;;1.90;;
38379;SDS011;38377;47.418;18.882;2023-07-31T08:38:35;5.07;;;1.77;;
38379;SDS011;38377;47.418;18.882;2023-07-31T08:41:02;3.50;;;1.67;;
38379;SDS011;38377;47.418;18.882;2023-07-31T08:43:29;3.13;;;1.75;;
38379;SDS011;38377;47.418;18.882;2023-07-31T08:45:55;3.22;;;1.88;;
38379;SDS011;38377;47.418;18.882;2023-07-31T08:48:22;3.40;;;1.92;;
38379;SDS011;38377;47.418;18.882;2023-07-31T08:50:49;2.88;;;1.55;;
38379;SDS011;38377;47.418;18.882;2023-07-31T08:53:15;4.63;;;1.38;;
38379;SDS011;38377;47.418;18.882;2023-07-31T08:55:42;3.13;;;1.83;;
38379;SDS011;38377;47.418;18.882;2023-07-31T08:58:09;2.10;;;1.45;;
38379;SDS011;38377;47.418;18.882;2023-07-31T09:00:37;2.90;;;1.35;;
38379;SDS011;38377;47.418;18.882;2023-07-31T09:03:09;4.38;;;1.40;;
38379;SDS011;38377;47.418;18.882;2023-07-31T09:05:40;2.78;;;1.60;;
38379;SDS011;38377;47.418;18.882;2023-07-31T09:08:09;3.08;;;1.80;;
38379;SDS011;38377;47.418;18.882;2023-07-31T09:10:42;3.80;;;1.63;;
38379;SDS011;38377;47.418;18.882;2023-07-31T09:13:11;2.55;;;1.48;;
38379;SDS011;38377;47.418;18.882;2023-07-31T09:15:38;5.18;;;1.50;;
38379;SDS011;38377;47.418;18.882;2023-07-31T09:18:05;3.95;;;1.35;;
38379;SDS011;38377;47.418;18.882;2023-07-31T09:20:32;2.42;;;1.38;;
38379;SDS011;38377;47.418;18.882;2023-07-31T09:23:05;2.88;;;1.52;;
38379;SDS011;38377;47.418;18.882;2023-07-31T09:25:35;3.90;;;1.90;;
38379;SDS011;38377;47.418;18.882;2023-07-31T09:28:04;2.20;;;1.52;;
38379;SDS011;38377;47.418;18.882;2023-07-31T09:30:47;5.40;;;1.60;;
38379;SDS011;38377;47.418;18.882;2023-07-31T09:33:15;3.50;;;1.77;;
38379;SDS011;38377;47.418;18.882;2023-07-31T09:35:41;4.57;;;1.60;;
38379;SDS011;38377;47.418;18.882;2023-07-31T09:38:11;1.60;;;1.17;;
38379;SDS011;38377;47.418;18.882;2023-07-31T09:40:38;7.63;;;1.77;;
38379;SDS011;38377;47.418;18.882;2023-07-31T09:43:12;2.78;;;1.50;;
38379;SDS011;38377;47.418;18.882;2023-07-31T09:45:42;3.45;;;1.52;;
38379;SDS011;38377;47.418;18.882;2023-07-31T09:48:09;2.60;;;1.58;;
38379;SDS011;38377;47.418;18.882;2023-07-31T09:50:39;3.75;;;1.52;;
38379;SDS011;38377;47.418;18.882;2023-07-31T09:53:06;2.28;;;1.67;;
38379;SDS011;38377;47.418;18.882;2023-07-31T09:55:32;4.72;;;1.98;;
38379;SDS011;38377;47.418;18.882;2023-07-31T09:57:58;2.58;;;1.33;;
38379;SDS011;38377;47.418;18.882;2023-07-31T10:00:28;3.30;;;1.40;;
38379;SDS011;38377;47.418;18.882;2023-07-31T10:02:55;2.45;;;1.27;;
38379;SDS011;38377;47.418;18.882;2023-07-31T10:05:24;4.20;;;1.30;;
38379;SDS011;38377;47.418;18.882;2023-07-31T10:07:56;2.13;;;1.55;;
38379;SDS011;38377;47.418;18.882;2023-07-31T10:10:22;2.97;;;1.65;;
38379;SDS011;38377;47.418;18.882;2023-07-31T10:12:50;2.55;;;1.33;;
38379;SDS011;38377;47.418;18.882;2023-07-31T10:15:17;2.47;;;1.40;;
38379;SDS011;38377;47.418;18.882;2023-07-31T10:17:47;3.03;;;1.38;;
38379;SDS011;38377;47.418;18.882;2023-07-31T10:20:14;1.73;;;1.33;;
38379;SDS011;38377;47.418;18.882;2023-07-31T10:22:44;8.90;;;1.97;;
38379;SDS011;38377;47.418;18.882;2023-07-31T10:25:13;3.47;;;1.58;;
38379;SDS011;38377;47.418;18.882;2023-07-31T10:27:40;3.42;;;1.35;;
38379;SDS011;38377;47.418;18.882;2023-07-31T10:30:07;1.88;;;1.20;;
38379;SDS011;38377;47.418;18.882;2023-07-31T10:32:34;4.85;;;1.58;;
38379;SDS011;38377;47.418;18.882;2023-07-31T10:35:01;3.67;;;1.48;;
38379;SDS011;38377;47.418;18.882;2023-07-31T10:37:29;2.63;;;1.48;;
38379;SDS011;38377;47.418;18.882;2023-07-31T10:42:32;1.80;;;1.20;;
38379;SDS011;38377;47.418;18.882;2023-07-31T10:45:05;4.85;;;1.42;;
38379;SDS011;38377;47.418;18.882;2023-07-31T10:50:18;3.55;;;1.55;;
38379;SDS011;38377;47.418;18.882;2023-07-31T10:52:47;2.80;;;1.15;;
38379;SDS011;38377;47.418;18.882;2023-07-31T10:58:13;3.75;;;1.27;;
38379;SDS011;38377;47.418;18.882;2023-07-31T11:00:43;2.88;;;1.27;;
38379;SDS011;38377;47.418;18.882;2023-07-31T11:03:12;3.08;;;1.35;;
38379;SDS011;38377;47.418;18.882;2023-07-31T11:08:23;3.25;;;1.20;;
38379;SDS011;38377;47.418;18.882;2023-07-31T11:10:51;2.17;;;1.30;;
38379;SDS011;38377;47.418;18.882;2023-07-31T11:13:26;3.40;;;1.10;;
38379;SDS011;38377;47.418;18.882;2023-07-31T11:15:52;3.78;;;1.50;;
38379;SDS011;38377;47.418;18.882;2023-07-31T11:18:17;2.17;;;1.15;;
38379;SDS011;38377;47.418;18.882;2023-07-31T11:20:43;2.95;;;1.50;;
38379;SDS011;38377;47.418;18.882;2023-07-31T11:23:09;4.05;;;1.45;;
38379;SDS011;38377;47.418;18.882;2023-07-31T11:25:36;3.33;;;1.27;;
38379;SDS011;38377;47.418;18.882;2023-07-31T11:28:11;2.17;;;1.20;;
38379;SDS011;38377;47.418;18.882;2023-07-31T11:30:40;2.28;;;1.45;;
38379;SDS011;38377;47.418;18.882;2023-07-31T11:33:07;3.78;;;1.48;;
38379;SDS011;38377;47.418;18.882;2023-07-31T11:35:46;3.05;;;1.27;;
38379;SDS011;38377;47.418;18.882;2023-07-31T11:40:52;2.85;;;1.30;;
38379;SDS011;38377;47.418;18.882;2023-07-31T11:43:28;3.00;;;1.75;;
38379;SDS011;38377;47.418;18.882;2023-07-31T11:45:55;2.67;;;1.30;;
38379;SDS011;38377;47.418;18.882;2023-07-31T11:48:23;2.90;;;1.33;;
38379;SDS011;38377;47.418;18.882;2023-07-31T11:50:52;3.17;;;1.40;;
38379;SDS011;38377;47.418;18.882;2023-07-31T11:53:27;3.03;;;1.38;;
38379;SDS011;38377;47.418;18.882;2023-07-31T11:55:59;4.25;;;1.20;;
38379;SDS011;38377;47.418;18.882;2023-07-31T11:58:26;3.08;;;1.42;;
38379;SDS011;38377;47.418;18.882;2023-07-31T12:00:54;2.42;;;1.50;;
38379;SDS011;38377;47.418;18.882;2023-07-31T12:03:21;3.75;;;1.25;;
38379;SDS011;38377;47.418;18.882;2023-07-31T12:05:47;3.30;;;1.65;;
38379;SDS011;38377;47.418;18.882;2023-07-31T12:08:13;3.05;;;1.10;;
38379;SDS011;38377;47.418;18.882;2023-07-31T12:10:39;3.42;;;1.58;;
38379;SDS011;38377;47.418;18.882;2023-07-31T12:15:42;1.80;;;1.05;;
38379;SDS011;38377;47.418;18.882;2023-07-31T12:20:39;3.10;;;1.48;;
38379;SDS011;38377;47.418;18.882;2023-07-31T12:23:06;2.95;;;1.10;;
38379;SDS011;38377;47.418;18.882;2023-07-31T12:25:32;2.38;;;1.30;;
38379;SDS011;38377;47.418;18.882;2023-07-31T12:28:05;2.88;;;1.40;;
38379;SDS011;38377;47.418;18.882;2023-07-31T12:30:34;2.85;;;1.38;;
38379;SDS011;38377;47.418;18.882;2023-07-31T12:33:03;3.53;;;1.40;;
38379;SDS011;38377;47.418;18.882;2023-07-31T12:35:37;2.35;;;1.40;;
38379;SDS011;38377;47.418;18.882;2023-07-31T12:38:05;4.20;;;1.40;;
38379;SDS011;38377;47.418;18.882;2023-07-31T12:40:31;4.25;;;1.60;;
38379;SDS011;38377;47.418;18.882;2023-07-31T12:42:57;4.47;;;1.50;;
38379;SDS011;38377;47.418;18.882;2023-07-31T12:45:26;3.92;;;1.27;;
38379;SDS011;38377;47.418;18.882;2023-07-31T12:47:52;2.97;;;1.67;;
38379;SDS011;38377;47.418;18.882;2023-07-31T12:50:17;2.20;;;1.30;;
38379;SDS011;38377;47.418;18.882;2023-07-31T12:52:43;2.95;;;1.30;;
38379;SDS011;38377;47.418;18.882;2023-07-31T12:55:08;2.10;;;1.42;;
38379;SDS011;38377;47.418;18.882;2023-07-31T12:57:36;1.60;;;1.30;;
38379;SDS011;38377;47.418;18.882;2023-07-31T13:00:02;3.45;;;1.20;;
38379;SDS011;38377;47.418;18.882;2023-07-31T13:02:28;2.05;;;1.38;;
38379;SDS011;38377;47.418;18.882;2023-07-31T13:04:54;3.28;;;1.33;;
38379;SDS011;38377;47.418;18.882;2023-07-31T13:07:21;3.92;;;1.58;;
38379;SDS011;38377;47.418;18.882;2023-07-31T13:09:47;2.38;;;1.33;;
38379;SDS011;38377;47.418;18.882;2023-07-31T13:12:13;4.22;;;1.52;;
38379;SDS011;38377;47.418;18.882;2023-07-31T13:14:39;2.97;;;1.30;;
38379;SDS011;38377;47.418;18.882;2023-07-31T13:17:04;2.25;;;1.27;;
38379;SDS011;38377;47.418;18.882;2023-07-31T13:19:30;1.40;;;1.30;;
38379;SDS011;38377;47.418;18.882;2023-07-31T13:21:56;1.60;;;1.20;;
38379;SDS011;38377;47.418;18.882;2023-07-31T13:24:21;4.18;;;1.48;;
38379;SDS011;38377;47.418;18.882;2023-07-31T13:26:47;2.70;;;1.33;;
38379;SDS011;38377;47.418;18.882;2023-07-31T13:29:13;5.05;;;1.60;;
38379;SDS011;38377;47.418;18.882;2023-07-31T13:31:38;4.72;;;1.30;;
38379;SDS011;38377;47.418;18.882;2023-07-31T13:34:04;4.72;;;1.33;;
38379;SDS011;38377;47.418;18.882;2023-07-31T13:36:30;2.70;;;1.30;;
38379;SDS011;38377;47.418;18.882;2023-07-31T13:38:55;3.15;;;1.42;;
38379;SDS011;38377;47.418;18.882;2023-07-31T13:41:21;2.38;;;1.15;;
38379;SDS011;38377;47.418;18.882;2023-07-31T13:43:47;2.63;;;1.35;;
38379;SDS011;38377;47.418;18.882;2023-07-31T13:46:12;2.60;;;1.45;;
38379;SDS011;38377;47.418;18.882;2023-07-31T13:48:38;2.28;;;1.20;;
38379;SDS011;38377;47.418;18.882;2023-07-31T13:51:04;2.97;;;1.30;;
38379;SDS011;38377;47.418;18.882;2023-07-31T13:53:29;2.90;;;1.40;;
38379;SDS011;38377;47.418;18.882;2023-07-31T13:55:55;3.70;;;1.38;;
38379;SDS011;38377;47.418;18.882;2023-07-31T13:58:21;3.45;;;1.35;;
38379;SDS011;38377;47.418;18.882;2023-07-31T14:00:46;3.63;;;1.60;;
38379;SDS011;38377;47.418;18.882;2023-07-31T14:03:12;1.80;;;1.35;;
38379;SDS011;38377;47.418;18.882;2023-07-31T14:05:38;4.03;;;1.75;;
38379;SDS011;38377;47.418;18.882;2023-07-31T14:08:03;2.10;;;1.25;;
38379;SDS011;38377;47.418;18.882;2023-07-31T14:10:29;2.13;;;1.33;;
38379;SDS011;38377;47.418;18.882;2023-07-31T14:12:54;5.05;;;1.45;;
38379;SDS011;38377;47.418;18.882;2023-07-31T14:15:20;3.17;;;1.65;;
38379;SDS011;38377;47.418;18.882;2023-07-31T14:17:47;3.40;;;1.40;;
38379;SDS011;38377;47.418;18.882;2023-07-31T14:20:13;2.80;;;1.67;;
38379;SDS011;38377;47.418;18.882;2023-07-31T14:22:38;4.90;;;1.48;;
38379;SDS011;38377;47.418;18.882;2023-07-31T14:25:04;3.70;;;1.25;;
38379;SDS011;38377;47.418;18.882;2023-07-31T14:27:30;2.50;;;1.45;;
38379;SDS011;38377;47.418;18.882;2023-07-31T14:29:56;2.72;;;1.38;;
38379;SDS011;38377;47.418;18.882;2023-07-31T14:32:22;3.55;;;1.30;;
38379;SDS011;38377;47.418;18.882;2023-07-31T14:34:50;2.47;;;1.45;;
38379;SDS011;38377;47.418;18.882;2023-07-31T14:37:16;3.60;;;1.63;;
38379;SDS011;38377;47.418;18.882;2023-07-31T14:39:42;2.85;;;1.27;;
38379;SDS011;38377;47.418;18.882;2023-07-31T14:42:08;2.20;;;1.52;;
38379;SDS011;38377;47.418;18.882;2023-07-31T14:44:34;2.80;;;1.50;;
38379;SDS011;38377;47.418;18.882;2023-07-31T14:47:00;3.28;;;1.40;;
38379;SDS011;38377;47.418;18.882;2023-07-31T14:49:26;3.40;;;1.50;;
38379;SDS011;38377;47.418;18.882;2023-07-31T14:51:53;3.88;;;1.40;;
38379;SDS011;38377;47.418;18.882;2023-07-31T14:54:19;3.08;;;1.38;;
38379;SDS011;38377;47.418;18.882;2023-07-31T14:56:45;1.73;;;1.20;;